Apple Creek, Missouri
Current Conditions -  °F | °C
As of 6:53 AM on Monday 22 Dec 2014 (Local Time) from KCGI Reporting Station
Overcast Overcast  
Wind Chill: 41°   Ceiling: 900
Heat Index: 45°   Visibility: 10mi
Dew Point: 42°   Wind: 8mph
Humidity: 90%   Direction: 150°SSE
Pressure: 29.84"   Gusts: NA
Location:  37.5321°N, 89.7536°W
Report Text: KCGI 221253Z AUTO 15007KT 10SM OVC009 07/06 A2984 RMK AO2 SLP106 T00720056 TSNO
Loading
Personal Weather Stations






























Interactive Weather Map New forecast layout! Learn more

10-Day Weather Forecast

Advertisements
Track Severe Weather on mobile